createdAt,value
2023-04-16T00:05:41.073Z,2.07
2023-04-16T00:15:46.154Z,4.60
2023-04-16T00:25:49.845Z,2.80
2023-04-16T00:35:54.905Z,3.23
2023-04-16T00:45:59.166Z,1.10
2023-04-16T00:56:06.931Z,2.37
2023-04-16T01:06:11.167Z,2.50
2023-04-16T01:16:16.263Z,2.17
2023-04-16T01:26:21.490Z,3.27
2023-04-16T01:36:26.811Z,2.63
2023-04-16T01:46:33.463Z,2.47
2023-04-16T01:56:37.286Z,3.20
2023-04-16T02:06:42.264Z,2.57
2023-04-16T02:16:46.647Z,1.73
2023-04-16T02:26:51.735Z,1.57
2023-04-16T02:36:55.428Z,2.20
2023-04-16T02:47:00.425Z,2.60
2023-04-16T02:57:04.226Z,1.33
2023-04-16T03:07:09.604Z,3.87
2023-04-16T03:17:13.319Z,2.23
2023-04-16T03:27:18.295Z,2.40
2023-04-16T03:37:22.074Z,3.17
2023-04-16T03:47:27.222Z,3.10
2023-04-16T03:57:31.162Z,2.83
2023-04-16T04:07:36.135Z,2.37
2023-04-16T04:17:39.959Z,2.67
2023-04-16T04:27:46.139Z,2.23
2023-04-16T04:37:50.145Z,2.40
2023-04-16T04:47:55.270Z,1.93
2023-04-16T04:57:58.972Z,2.93
2023-04-16T05:08:04.184Z,1.50
2023-04-16T05:18:07.950Z,1.47
2023-04-16T05:28:12.968Z,1.40
2023-04-16T05:38:16.614Z,2.70
2023-04-16T05:48:21.667Z,2.03
2023-04-16T05:58:25.256Z,2.67
2023-04-16T06:08:30.181Z,2.70
2023-04-16T06:18:33.819Z,2.40
2023-04-16T06:28:39.018Z,2.93
2023-04-16T06:38:42.654Z,2.70
2023-04-16T06:48:47.656Z,2.00
2023-04-16T06:58:52.010Z,2.97
2023-04-16T07:08:56.962Z,2.60
2023-04-16T07:19:00.609Z,1.53
2023-04-16T07:29:05.740Z,2.90
2023-04-16T07:39:10.872Z,6.10
2023-04-16T07:49:16.321Z,2.60
2023-04-16T07:59:23.514Z,4.30
2023-04-16T08:09:29.502Z,4.33
2023-04-16T08:19:33.274Z,2.10
2023-04-16T08:29:38.354Z,4.07
2023-04-16T08:39:41.992Z,4.47
2023-04-16T08:49:47.212Z,3.47
2023-04-16T08:59:55.756Z,2.83
2023-04-16T09:10:01.907Z,3.93
2023-04-16T09:20:10.847Z,4.47
2023-04-16T09:30:24.445Z,5.60
2023-04-16T09:40:30.601Z,5.00
2023-04-16T09:50:35.838Z,3.93
2023-04-16T10:00:43.345Z,4.40
2023-04-16T10:10:48.917Z,4.23
2023-04-16T10:20:53.234Z,3.50
2023-04-16T10:30:59.887Z,4.63
2023-04-16T10:41:05.658Z,2.53
2023-04-16T10:51:29.373Z,5.00
2023-04-16T11:01:34.815Z,4.10
2023-04-16T11:11:40.620Z,3.13
2023-04-16T11:21:46.385Z,3.23
2023-04-16T11:31:53.715Z,3.67
2023-04-16T11:41:57.548Z,4.40
2023-04-16T11:52:02.587Z,3.57
2023-04-16T12:02:06.381Z,6.43
2023-04-16T12:12:32.154Z,4.30
2023-04-16T12:22:37.766Z,2.77
2023-04-16T12:32:44.778Z,8.83
2023-04-16T12:42:48.704Z,5.07
2023-04-16T12:52:53.856Z,7.67
2023-04-16T13:02:57.810Z,9.00
2023-04-16T13:13:02.930Z,6.90
2023-04-16T13:23:06.866Z,7.30
2023-04-16T13:33:12.308Z,7.87
2023-04-16T13:43:19.101Z,4.87
2023-04-16T13:53:24.354Z,6.73
2023-04-16T14:03:28.601Z,6.33
2023-04-16T14:13:33.910Z,7.33
2023-04-16T14:23:37.611Z,6.10
2023-04-16T14:33:42.746Z,7.27
2023-04-16T14:43:46.598Z,6.23
2023-04-16T14:53:51.852Z,4.03
2023-04-16T15:03:57.472Z,4.00
2023-04-16T15:14:05.603Z,2.67
2023-04-16T15:24:10.174Z,4.60
2023-04-16T15:34:15.582Z,3.10
2023-04-16T15:44:19.430Z,2.97
2023-04-16T15:54:25.307Z,3.43
2023-04-16T16:04:29.155Z,3.77
2023-04-16T16:14:34.623Z,3.20
2023-04-16T16:24:38.734Z,3.27
2023-04-16T16:34:45.715Z,4.20
2023-04-16T16:44:57.533Z,4.17
2023-04-16T16:55:02.791Z,5.53
2023-04-16T17:05:07.904Z,5.07
2023-04-16T17:15:13.424Z,6.77
2023-04-16T17:25:17.215Z,6.17
2023-04-16T17:35:22.865Z,5.17
2023-04-16T17:45:26.613Z,4.67
2023-04-16T17:55:31.960Z,7.63
2023-04-16T18:05:35.705Z,8.73
2023-04-16T18:15:41.534Z,5.90
2023-04-16T18:25:45.480Z,5.67
2023-04-16T18:35:50.741Z,7.70
2023-04-16T18:45:54.514Z,6.60
2023-04-16T18:56:00.549Z,11.00
2023-04-16T19:06:06.806Z,5.53
2023-04-16T19:16:12.613Z,6.40
2023-04-16T19:26:16.740Z,8.70
2023-04-16T19:36:21.987Z,7.13
2023-04-16T19:46:25.880Z,6.70
2023-04-16T19:56:31.043Z,5.80
2023-04-16T20:06:34.782Z,4.57
2023-04-16T20:16:39.866Z,5.77
2023-04-16T20:26:43.597Z,6.50
2023-04-16T20:36:48.615Z,11.40
2023-04-16T20:46:55.368Z,9.83
2023-04-16T20:57:01.910Z,4.73
2023-04-16T21:07:06.552Z,5.67
2023-04-16T21:17:11.531Z,6.23
2023-04-16T21:27:15.342Z,8.37
2023-04-16T21:37:20.425Z,5.97
2023-04-16T21:47:24.189Z,6.07
2023-04-16T21:57:29.537Z,3.60
2023-04-16T22:07:33.211Z,5.67
2023-04-16T22:17:38.644Z,3.80
2023-04-16T22:27:42.472Z,4.53
2023-04-16T22:37:47.945Z,4.63
2023-04-16T22:47:51.698Z,4.73
2023-04-16T22:58:02.019Z,3.57
2023-04-16T23:08:20.457Z,6.90
2023-04-16T23:18:25.594Z,7.67
2023-04-16T23:28:29.575Z,6.00
2023-04-16T23:38:34.765Z,5.33
2023-04-16T23:48:38.437Z,10.30
2023-04-16T23:58:43.543Z,6.27
